createdAt,value
2019-05-29T00:01:40.653Z,80.17
2019-05-29T00:04:08.169Z,80.97
2019-05-29T00:06:37.097Z,80.97
2019-05-29T00:09:04.165Z,80.79
2019-05-29T00:11:31.194Z,81.45
2019-05-29T00:13:58.241Z,81.23
2019-05-29T00:16:25.281Z,81.16
2019-05-29T00:18:52.326Z,81.12
2019-05-29T00:21:19.362Z,81.28
2019-05-29T00:23:46.409Z,81.58
2019-05-29T00:26:14.592Z,81.62
2019-05-29T00:28:41.677Z,81.34
2019-05-29T00:31:09.872Z,81.10
2019-05-29T00:33:37.044Z,81.06
2019-05-29T00:36:04.252Z,81.05
2019-05-29T00:38:31.302Z,81.06
2019-05-29T00:40:58.340Z,81.26
2019-05-29T00:43:25.556Z,81.23
2019-05-29T00:45:53.005Z,81.35
2019-05-29T00:48:20.053Z,81.98
2019-05-29T00:50:47.102Z,81.91
2019-05-29T00:53:14.433Z,82.20
2019-05-29T00:55:42.537Z,82.14
2019-05-29T00:58:10.733Z,82.13
2019-05-29T01:00:37.991Z,82.06
2019-05-29T01:03:05.025Z,82.04
2019-05-29T01:05:32.075Z,82.57
2019-05-29T01:07:59.111Z,82.71
2019-05-29T01:10:26.430Z,82.62
2019-05-29T01:12:53.497Z,82.54
2019-05-29T01:15:21.519Z,82.53
2019-05-29T01:17:48.550Z,82.65
2019-05-29T01:20:15.990Z,82.69
2019-05-29T01:22:44.081Z,82.75
2019-05-29T01:25:12.417Z,82.87
2019-05-29T01:27:39.861Z,82.79
2019-05-29T01:30:06.914Z,83.19
2019-05-29T01:32:33.945Z,82.92
2019-05-29T01:35:00.994Z,82.78
2019-05-29T01:37:28.999Z,83.01
2019-05-29T01:39:56.047Z,83.11
2019-05-29T01:42:23.568Z,83.01
2019-05-29T01:45:06.649Z,82.66
2019-05-29T01:47:19.641Z,82.40
2019-05-29T01:49:46.933Z,82.35
2019-05-29T01:52:13.965Z,82.37
2019-05-29T01:54:41.017Z,82.39
2019-05-29T01:57:08.323Z,82.22
2019-05-29T01:59:35.619Z,82.20
2019-05-29T02:02:02.935Z,82.26
2019-05-29T02:04:30.293Z,82.32
2019-05-29T02:06:57.316Z,82.52
2019-05-29T02:09:24.619Z,82.51
2019-05-29T02:11:51.961Z,82.53
2019-05-29T02:14:20.455Z,82.60
2019-05-29T02:16:47.781Z,82.49
2019-05-29T02:19:15.721Z,82.51
2019-05-29T02:21:43.033Z,82.38
2019-05-29T02:24:10.088Z,82.35
2019-05-29T02:26:37.362Z,82.29
2019-05-29T02:29:04.391Z,82.19
2019-05-29T02:31:31.435Z,82.19
2019-05-29T02:33:58.712Z,82.17
2019-05-29T02:36:27.131Z,82.40
2019-05-29T02:38:54.732Z,82.40
2019-05-29T02:41:24.202Z,82.36
2019-05-29T02:43:51.018Z,82.35
2019-05-29T02:46:19.578Z,82.44
2019-05-29T02:48:46.892Z,82.57
2019-05-29T02:51:13.944Z,82.80
2019-05-29T02:53:40.960Z,83.08
2019-05-29T02:56:08.271Z,83.22
2019-05-29T02:58:35.292Z,83.38
2019-05-29T03:01:02.581Z,83.44
2019-05-29T03:03:34.494Z,83.55
2019-05-29T03:05:58.866Z,83.76
2019-05-29T03:08:27.083Z,83.63
2019-05-29T03:10:55.130Z,83.61
2019-05-29T03:13:23.151Z,83.63
2019-05-29T03:16:08.335Z,83.70
2019-05-29T03:18:19.338Z,83.76
2019-05-29T03:20:47.617Z,83.86
2019-05-29T03:23:14.976Z,83.91
2019-05-29T03:25:42.324Z,83.76
2019-05-29T03:28:09.356Z,83.77
2019-05-29T03:30:44.255Z,83.74
2019-05-29T03:33:05.146Z,83.82
2019-05-29T03:35:42.077Z,83.94
2019-05-29T03:38:01.457Z,83.98
2019-05-29T03:40:29.501Z,84.08
2019-05-29T03:42:57.824Z,84.05
2019-05-29T03:45:26.741Z,84.00
2019-05-29T03:47:53.913Z,84.00
2019-05-29T03:50:21.309Z,83.90
2019-05-29T03:52:48.670Z,83.65
2019-05-29T03:55:16.019Z,83.47
2019-05-29T03:57:43.083Z,83.31
2019-05-29T04:00:10.125Z,83.14
2019-05-29T04:02:38.439Z,83.03
2019-05-29T04:05:05.950Z,82.91
2019-05-29T04:07:34.058Z,82.91
2019-05-29T04:10:02.296Z,82.74
2019-05-29T04:12:31.301Z,82.66
2019-05-29T04:14:58.850Z,82.49
2019-05-29T04:17:27.305Z,82.42
2019-05-29T04:19:54.332Z,82.29
2019-05-29T04:22:21.631Z,82.04
2019-05-29T04:24:49.006Z,81.91
2019-05-29T04:27:16.346Z,81.83
2019-05-29T04:29:43.723Z,81.81
2019-05-29T04:32:10.837Z,81.67
2019-05-29T04:34:39.811Z,81.39
2019-05-29T04:37:07.632Z,81.03
2019-05-29T04:39:34.719Z,80.74
2019-05-29T04:42:01.766Z,80.21
2019-05-29T04:44:30.708Z,79.91
2019-05-29T04:47:10.090Z,79.06
2019-05-29T04:49:29.023Z,78.00
2019-05-29T04:51:56.376Z,77.58
2019-05-29T04:54:23.701Z,77.49
2019-05-29T04:56:51.094Z,77.48
2019-05-29T04:59:18.441Z,77.30
2019-05-29T05:01:45.768Z,76.86
2019-05-29T05:04:13.120Z,76.60
2019-05-29T05:06:40.422Z,76.07
2019-05-29T05:09:07.729Z,75.63
2019-05-29T05:11:35.466Z,75.37
2019-05-29T05:14:02.590Z,74.87
2019-05-29T05:16:29.777Z,74.25
2019-05-29T05:18:57.148Z,73.84
2019-05-29T05:21:24.193Z,73.22
2019-05-29T05:23:51.586Z,72.11
2019-05-29T05:26:18.625Z,69.45
2019-05-29T05:28:46.539Z,58.56
2019-05-29T05:31:15.378Z,52.02
2019-05-29T05:33:42.715Z,49.87
2019-05-29T05:36:09.749Z,50.00
2019-05-29T05:38:37.117Z,50.68
2019-05-29T05:41:04.489Z,50.75
2019-05-29T05:43:32.843Z,54.75
2019-05-29T05:46:00.115Z,57.72
2019-05-29T05:48:27.164Z,60.72
2019-05-29T05:50:54.202Z,61.75
2019-05-29T05:53:21.557Z,62.53
2019-05-29T05:55:48.937Z,62.15
2019-05-29T05:58:15.991Z,63.08
2019-05-29T06:00:43.315Z,65.60
2019-05-29T06:03:10.629Z,66.94
2019-05-29T06:05:38.321Z,67.47
2019-05-29T06:08:05.358Z,68.75
2019-05-29T06:10:34.065Z,69.11
2019-05-29T06:13:01.521Z,69.71
2019-05-29T06:15:28.876Z,70.89
2019-05-29T06:18:10.425Z,71.29
2019-05-29T06:20:26.454Z,70.83
2019-05-29T06:22:53.810Z,70.36
2019-05-29T06:25:21.194Z,70.29
2019-05-29T06:27:48.538Z,70.99
2019-05-29T06:30:15.896Z,71.27
2019-05-29T06:32:43.610Z,71.77
2019-05-29T06:35:10.996Z,72.59
2019-05-29T06:37:39.504Z,73.08
2019-05-29T06:40:06.677Z,73.27
2019-05-29T06:42:33.717Z,74.27
2019-05-29T06:45:00.969Z,74.04
2019-05-29T06:47:28.451Z,74.06
2019-05-29T06:49:55.741Z,73.73
2019-05-29T06:52:23.114Z,73.19
2019-05-29T06:54:50.451Z,72.48
2019-05-29T06:57:17.808Z,71.43
2019-05-29T06:59:45.166Z,71.69
2019-05-29T07:02:12.206Z,70.49
2019-05-29T07:04:40.209Z,69.62
2019-05-29T07:07:07.736Z,69.45
2019-05-29T07:09:34.790Z,69.78
2019-05-29T07:12:02.140Z,71.63
2019-05-29T07:14:29.204Z,71.30
2019-05-29T07:16:56.569Z,70.23
2019-05-29T07:19:32.739Z,67.86
2019-05-29T07:21:53.098Z,66.68
2019-05-29T07:24:20.460Z,64.50
2019-05-29T07:26:47.507Z,60.40
2019-05-29T07:29:15.629Z,55.24
2019-05-29T07:31:43.044Z,55.35
2019-05-29T07:34:10.060Z,54.20
2019-05-29T07:36:37.933Z,53.82
2019-05-29T07:39:05.061Z,50.38
2019-05-29T07:41:32.449Z,51.62
2019-05-29T07:43:59.502Z,51.07
2019-05-29T07:46:26.538Z,51.16
2019-05-29T07:48:53.574Z,52.00
2019-05-29T07:51:20.973Z,52.62
2019-05-29T07:53:48.763Z,52.03
2019-05-29T07:56:22.640Z,52.59
2019-05-29T07:58:56.801Z,52.77
2019-05-29T08:01:14.130Z,54.54
2019-05-29T08:03:41.533Z,55.52
2019-05-29T08:06:08.885Z,55.31
2019-05-29T08:08:36.224Z,55.38
2019-05-29T08:11:03.273Z,54.14
2019-05-29T08:13:30.627Z,54.66
2019-05-29T08:16:03.080Z,52.97
2019-05-29T08:18:26.718Z,53.70
2019-05-29T08:20:54.024Z,54.05
2019-05-29T08:23:21.061Z,55.03
2019-05-29T08:25:49.691Z,56.57
2019-05-29T08:28:18.242Z,57.87
2019-05-29T08:30:50.341Z,57.98
2019-05-29T08:33:14.400Z,58.84
2019-05-29T08:35:41.881Z,58.96
2019-05-29T08:38:10.325Z,58.31
2019-05-29T08:40:37.612Z,57.09
2019-05-29T08:43:04.653Z,56.75
2019-05-29T08:45:31.999Z,57.47
2019-05-29T08:47:59.033Z,56.64
2019-05-29T08:50:27.147Z,56.78
2019-05-29T08:52:54.177Z,56.01
2019-05-29T08:55:21.501Z,54.09
2019-05-29T08:57:48.563Z,54.46
2019-05-29T09:00:15.904Z,55.10
2019-05-29T09:02:44.516Z,55.23
2019-05-29T09:05:12.776Z,56.09
2019-05-29T09:07:40.121Z,55.24
2019-05-29T09:10:07.491Z,56.77
2019-05-29T09:12:34.775Z,56.23
2019-05-29T09:15:02.054Z,57.04
2019-05-29T09:17:29.957Z,56.69
2019-05-29T09:19:57.005Z,56.71
2019-05-29T09:22:24.053Z,57.86
2019-05-29T09:24:51.404Z,58.01
2019-05-29T09:27:19.145Z,57.83
2019-05-29T09:29:46.368Z,58.83
2019-05-29T09:32:15.327Z,58.66
2019-05-29T09:34:42.506Z,58.64
2019-05-29T09:37:09.816Z,58.46
2019-05-29T09:39:37.178Z,58.38
2019-05-29T09:42:04.524Z,59.23
2019-05-29T09:44:38.932Z,59.26
2019-05-29T09:47:01.002Z,60.12
2019-05-29T09:49:28.332Z,60.83
2019-05-29T09:51:56.160Z,63.41
2019-05-29T09:54:23.416Z,64.91
2019-05-29T09:56:50.812Z,65.72
2019-05-29T09:59:17.853Z,65.49
2019-05-29T10:01:44.905Z,65.68
2019-05-29T10:04:11.941Z,64.92
2019-05-29T10:06:39.304Z,64.43
2019-05-29T10:09:06.624Z,63.54
2019-05-29T10:11:33.677Z,64.65
2019-05-29T10:14:02.361Z,65.34
2019-05-29T10:16:29.773Z,65.77
2019-05-29T10:18:58.570Z,66.86
2019-05-29T10:21:39.175Z,67.12
2019-05-29T10:23:56.612Z,67.56
2019-05-29T10:26:23.943Z,68.79
2019-05-29T10:29:06.825Z,69.95
2019-05-29T10:31:20.231Z,72.40
2019-05-29T10:33:48.263Z,73.08
2019-05-29T10:36:15.656Z,74.54
2019-05-29T10:38:44.305Z,73.90
2019-05-29T10:41:11.802Z,74.00
2019-05-29T10:43:39.174Z,74.79
2019-05-29T10:46:06.519Z,75.42
2019-05-29T10:48:33.595Z,74.72
2019-05-29T10:51:00.912Z,73.58
2019-05-29T10:53:27.988Z,74.35
2019-05-29T10:55:55.089Z,73.91
2019-05-29T10:58:23.146Z,74.74
2019-05-29T11:00:51.224Z,73.22
2019-05-29T11:03:18.739Z,71.93
2019-05-29T11:05:47.402Z,72.50
2019-05-29T11:08:15.881Z,70.67
2019-05-29T11:10:43.240Z,69.93
2019-05-29T11:13:10.593Z,71.24
2019-05-29T11:15:37.626Z,71.28
2019-05-29T11:18:05.005Z,70.76
2019-05-29T11:20:32.370Z,68.68
2019-05-29T11:22:59.421Z,69.92
2019-05-29T11:25:27.922Z,70.47
2019-05-29T11:27:56.570Z,70.91
2019-05-29T11:30:23.861Z,68.27
2019-05-29T11:32:52.710Z,68.30
2019-05-29T11:35:19.661Z,69.12
2019-05-29T11:37:47.009Z,67.70
2019-05-29T11:40:14.056Z,64.73
2019-05-29T11:42:41.279Z,64.21
2019-05-29T11:45:08.316Z,58.13
2019-05-29T11:47:35.369Z,60.05
2019-05-29T11:50:16.649Z,60.28
2019-05-29T11:52:42.275Z,61.65
2019-05-29T11:55:04.757Z,62.93
2019-05-29T11:57:29.557Z,62.33
2019-05-29T12:00:00.112Z,64.10
2019-05-29T12:02:25.330Z,64.25
2019-05-29T12:04:53.117Z,62.24
2019-05-29T12:07:20.525Z,62.94
2019-05-29T12:09:47.589Z,61.72
2019-05-29T12:12:16.022Z,59.68
2019-05-29T12:14:58.966Z,61.93
2019-05-29T12:17:12.147Z,60.64
2019-05-29T12:19:39.205Z,60.63
2019-05-29T12:22:06.241Z,58.96
2019-05-29T12:24:33.294Z,60.43
2019-05-29T12:27:00.661Z,61.62
2019-05-29T12:29:28.125Z,62.07
2019-05-29T12:31:57.073Z,62.11
2019-05-29T12:34:24.472Z,61.66
2019-05-29T12:36:53.244Z,60.96
2019-05-29T12:39:20.759Z,60.72
2019-05-29T12:41:47.772Z,60.36
2019-05-29T12:44:15.127Z,58.26
2019-05-29T12:46:42.161Z,58.72
2019-05-29T12:49:10.448Z,59.00
2019-05-29T12:51:37.867Z,58.95
2019-05-29T12:54:05.259Z,59.06
2019-05-29T12:56:32.480Z,59.82
2019-05-29T12:59:00.548Z,60.34
2019-05-29T13:01:28.063Z,60.53
2019-05-29T13:03:56.675Z,61.87
2019-05-29T13:06:24.081Z,63.12
2019-05-29T13:08:51.437Z,63.03
2019-05-29T13:11:18.815Z,64.61
2019-05-29T13:13:46.157Z,65.44
2019-05-29T13:16:13.190Z,64.85
2019-05-29T13:18:40.555Z,66.06
2019-05-29T13:21:07.905Z,66.60
2019-05-29T13:23:44.767Z,65.21
2019-05-29T13:26:04.038Z,67.54
2019-05-29T13:28:31.061Z,67.66
2019-05-29T13:30:59.683Z,69.74
2019-05-29T13:33:26.875Z,69.65
2019-05-29T13:35:54.212Z,70.14
2019-05-29T13:38:21.248Z,70.26
2019-05-29T13:40:48.302Z,70.35
2019-05-29T13:43:16.169Z,70.10
2019-05-29T13:45:43.608Z,71.29
2019-05-29T13:48:10.964Z,71.02
2019-05-29T13:50:38.507Z,70.20
2019-05-29T13:53:05.881Z,70.18
2019-05-29T13:55:32.965Z,69.25
2019-05-29T13:58:00.139Z,68.93
2019-05-29T14:00:35.242Z,68.59
2019-05-29T14:02:55.917Z,68.92
2019-05-29T14:05:23.233Z,70.64
2019-05-29T14:07:50.280Z,69.94
2019-05-29T14:10:17.673Z,70.23
2019-05-29T14:12:44.717Z,71.05
2019-05-29T14:15:12.442Z,70.92
2019-05-29T14:17:39.944Z,70.79
2019-05-29T14:20:06.988Z,69.80
2019-05-29T14:22:34.026Z,67.97
2019-05-29T14:25:01.395Z,68.59
2019-05-29T14:27:28.794Z,69.87
2019-05-29T14:29:55.813Z,67.80
2019-05-29T14:32:28.171Z,66.74
2019-05-29T14:34:52.841Z,66.99
2019-05-29T14:37:20.226Z,66.27
2019-05-29T14:39:47.343Z,67.35
2019-05-29T14:42:14.376Z,66.67
2019-05-29T14:44:41.424Z,66.65
2019-05-29T14:47:09.922Z,65.59
2019-05-29T14:49:37.528Z,63.81
2019-05-29T14:52:04.588Z,62.91
2019-05-29T14:54:41.288Z,63.24
2019-05-29T14:57:09.810Z,62.76
2019-05-29T14:59:30.942Z,63.16
2019-05-29T15:01:57.972Z,64.46
2019-05-29T15:04:25.073Z,65.98
2019-05-29T15:06:52.469Z,65.88
2019-05-29T15:09:20.754Z,67.21
2019-05-29T15:11:48.101Z,68.63
2019-05-29T15:14:15.460Z,69.39
2019-05-29T15:16:42.514Z,69.88
2019-05-29T15:19:10.910Z,69.68
2019-05-29T15:21:38.466Z,69.86
2019-05-29T15:24:05.732Z,69.56
2019-05-29T15:26:32.848Z,68.65
2019-05-29T15:29:00.835Z,68.42
2019-05-29T15:31:28.405Z,68.68
2019-05-29T15:33:55.748Z,68.70
2019-05-29T15:36:23.090Z,65.38
2019-05-29T15:38:50.446Z,67.90
2019-05-29T15:41:18.842Z,68.49
2019-05-29T15:43:49.315Z,68.51
2019-05-29T15:46:16.404Z,68.35
2019-05-29T15:48:44.025Z,69.20
2019-05-29T15:51:11.418Z,69.79
2019-05-29T15:53:38.774Z,70.11
2019-05-29T15:56:18.122Z,70.08
2019-05-29T15:58:35.222Z,70.41
2019-05-29T16:01:02.589Z,70.31
2019-05-29T16:03:29.953Z,70.35
2019-05-29T16:05:57.304Z,71.02
2019-05-29T16:08:24.594Z,70.93
2019-05-29T16:10:51.655Z,70.84
2019-05-29T16:13:19.066Z,70.50
2019-05-29T16:15:46.605Z,70.31
2019-05-29T16:18:23.146Z,70.64
2019-05-29T16:20:42.676Z,71.16
2019-05-29T16:23:10.882Z,70.78
2019-05-29T16:25:40.659Z,70.88
2019-05-29T16:28:06.808Z,71.02
2019-05-29T16:30:34.225Z,71.24
2019-05-29T16:33:01.269Z,71.54
2019-05-29T16:35:29.405Z,71.76
2019-05-29T16:37:56.449Z,71.95
2019-05-29T16:40:23.545Z,71.27
2019-05-29T16:42:50.632Z,71.07
2019-05-29T16:45:18.554Z,70.08
2019-05-29T16:47:45.802Z,69.33
2019-05-29T16:50:13.106Z,69.93
2019-05-29T16:52:40.312Z,70.11
2019-05-29T16:55:07.366Z,70.10
2019-05-29T16:57:34.491Z,69.68
2019-05-29T17:00:01.691Z,69.25
2019-05-29T17:02:28.898Z,69.81
2019-05-29T17:04:58.255Z,70.23
2019-05-29T17:07:25.010Z,70.31
2019-05-29T17:09:52.411Z,70.54
2019-05-29T17:12:20.510Z,70.85
2019-05-29T17:14:47.842Z,70.88
2019-05-29T17:17:16.507Z,70.89
2019-05-29T17:19:43.842Z,70.57
2019-05-29T17:22:11.240Z,69.67
2019-05-29T17:24:38.595Z,70.76
2019-05-29T17:27:05.821Z,71.12
2019-05-29T17:29:32.861Z,72.28
2019-05-29T17:32:00.248Z,72.35
2019-05-29T17:34:27.622Z,72.36
2019-05-29T17:36:54.658Z,72.41
2019-05-29T17:39:23.075Z,72.91
2019-05-29T17:41:50.307Z,72.96
2019-05-29T17:44:17.474Z,73.23
2019-05-29T17:46:52.982Z,73.63
2019-05-29T17:49:22.578Z,73.64
2019-05-29T17:54:23.884Z,74.66
2019-05-29T17:59:41.821Z,75.16
2019-05-29T18:02:09.186Z,75.44
2019-05-29T18:04:36.235Z,75.75
2019-05-29T18:07:08.628Z,76.15
2019-05-29T18:09:35.662Z,76.66
2019-05-29T18:12:06.721Z,76.71
2019-05-29T18:14:34.129Z,77.23
2019-05-29T18:17:01.186Z,77.46
2019-05-29T18:19:28.471Z,77.65
2019-05-29T18:21:56.109Z,77.57
2019-05-29T18:24:23.840Z,76.57
2019-05-29T18:26:51.307Z,76.62
2019-05-29T18:29:19.875Z,76.62
2019-05-29T18:31:48.600Z,76.67
2019-05-29T18:34:25.324Z,76.02
2019-05-29T18:36:52.454Z,75.67
2019-05-29T18:39:20.165Z,75.67
2019-05-29T18:41:47.630Z,75.32
2019-05-29T18:44:14.756Z,74.87
2019-05-29T18:46:53.941Z,74.65
2019-05-29T18:49:22.248Z,74.51
2019-05-29T18:52:00.320Z,74.45
2019-05-29T18:54:27.879Z,74.50
2019-05-29T18:57:13.602Z,74.85
2019-05-29T18:59:25.370Z,74.73
2019-05-29T19:01:52.610Z,74.76
2019-05-29T19:04:19.642Z,75.17
2019-05-29T19:06:47.006Z,75.71
2019-05-29T19:09:15.489Z,75.84
2019-05-29T19:11:42.801Z,76.15
2019-05-29T19:14:15.373Z,76.53
2019-05-29T19:16:42.416Z,76.66
2019-05-29T19:19:09.701Z,76.94
2019-05-29T19:21:36.913Z,76.84
2019-05-29T19:24:07.204Z,76.67
2019-05-29T19:29:10.209Z,77.86
2019-05-29T19:31:37.254Z,77.90
2019-05-29T19:34:04.778Z,78.42
2019-05-29T19:36:31.906Z,78.56
2019-05-29T19:41:50.324Z,78.00
2019-05-29T19:46:53.958Z,77.51
2019-05-29T19:51:52.934Z,77.31
2019-05-29T19:54:19.985Z,77.82
2019-05-29T19:56:47.160Z,77.83
2019-05-29T19:59:14.213Z,77.87
2019-05-29T20:01:44.815Z,77.55
2019-05-29T20:04:12.168Z,77.32
2019-05-29T20:06:52.802Z,76.17
2019-05-29T20:09:20.211Z,76.32
2019-05-29T20:11:50.266Z,75.77
2019-05-29T20:14:17.691Z,75.63
2019-05-29T20:16:45.246Z,75.58
2019-05-29T20:19:12.597Z,75.60
2019-05-29T20:21:39.669Z,76.06
2019-05-29T20:24:12.412Z,76.99
2019-05-29T20:26:39.476Z,77.17
2019-05-29T20:29:06.834Z,77.63
2019-05-29T20:31:34.549Z,78.18
2019-05-29T20:34:01.848Z,79.10
2019-05-29T20:36:28.897Z,79.88
2019-05-29T20:38:57.004Z,80.13
2019-05-29T20:41:24.416Z,80.16
2019-05-29T20:43:51.767Z,80.18
2019-05-29T20:46:19.120Z,80.85
2019-05-29T20:48:47.463Z,81.46
2019-05-29T20:51:14.854Z,80.72
2019-05-29T20:53:42.209Z,80.71
2019-05-29T20:58:42.636Z,81.01
2019-05-29T21:03:51.800Z,81.39
2019-05-29T21:08:54.630Z,81.21
2019-05-29T21:11:26.983Z,81.37
2019-05-29T21:13:54.035Z,81.64
2019-05-29T21:16:21.380Z,82.14
2019-05-29T21:18:48.415Z,82.07
2019-05-29T21:21:15.463Z,81.96
2019-05-29T21:23:42.831Z,82.17
2019-05-29T21:26:09.884Z,82.54
2019-05-29T21:28:43.592Z,82.65
2019-05-29T21:31:08.375Z,83.02
2019-05-29T21:33:35.832Z,82.70
2019-05-29T21:36:07.917Z,82.72
2019-05-29T21:38:36.038Z,82.63
2019-05-29T21:41:03.257Z,82.73
2019-05-29T21:43:30.285Z,82.45
2019-05-29T21:45:57.632Z,82.49
2019-05-29T21:48:24.980Z,82.67
2019-05-29T21:50:52.352Z,82.76
2019-05-29T21:53:19.383Z,82.79
2019-05-29T21:55:47.724Z,82.93
2019-05-29T21:58:15.220Z,82.81
2019-05-29T22:00:42.446Z,82.91
2019-05-29T22:03:11.176Z,83.00
2019-05-29T22:05:38.602Z,83.22
2019-05-29T22:08:05.641Z,83.59
2019-05-29T22:10:33.021Z,83.87
2019-05-29T22:13:00.699Z,83.95
2019-05-29T22:15:27.805Z,83.74
2019-05-29T22:17:55.210Z,83.79
2019-05-29T22:20:22.543Z,83.82
2019-05-29T22:22:51.056Z,83.94
2019-05-29T22:25:18.501Z,84.33
2019-05-29T22:27:45.845Z,85.02
2019-05-29T22:30:12.893Z,85.08
2019-05-29T22:32:39.972Z,85.16
2019-05-29T22:35:07.287Z,85.25
2019-05-29T22:37:34.584Z,84.94
2019-05-29T22:40:02.116Z,85.00
2019-05-29T22:42:29.234Z,85.26
2019-05-29T22:44:57.691Z,85.34
2019-05-29T22:47:25.011Z,85.35
2019-05-29T22:49:52.051Z,85.40
2019-05-29T22:52:19.398Z,86.46
2019-05-29T22:54:46.420Z,87.27
2019-05-29T22:57:13.476Z,87.25
2019-05-29T22:59:40.830Z,87.45
2019-05-29T23:02:07.813Z,87.84
2019-05-29T23:04:34.849Z,88.10
2019-05-29T23:07:02.602Z,88.55
2019-05-29T23:09:29.957Z,88.67
2019-05-29T23:11:58.236Z,88.96
2019-05-29T23:14:25.591Z,89.04
2019-05-29T23:16:52.641Z,88.74
2019-05-29T23:19:19.990Z,88.89
2019-05-29T23:21:47.347Z,88.96
2019-05-29T23:24:14.382Z,88.71
2019-05-29T23:26:41.691Z,88.74
2019-05-29T23:29:09.006Z,89.03
2019-05-29T23:31:36.362Z,89.67
2019-05-29T23:34:03.648Z,89.62
2019-05-29T23:36:31.748Z,89.49
2019-05-29T23:38:59.324Z,89.29
2019-05-29T23:41:26.621Z,89.08
2019-05-29T23:43:55.314Z,88.93
2019-05-29T23:46:22.842Z,88.83
2019-05-29T23:48:49.893Z,89.20
2019-05-29T23:51:17.262Z,89.33
2019-05-29T23:53:44.601Z,89.28
2019-05-29T23:56:11.984Z,89.14
2019-05-29T23:58:39.025Z,89.50
